createdAt,value
2022-08-21T00:01:11.201Z,99.90
2022-08-21T00:03:43.402Z,99.90
2022-08-21T00:06:16.066Z,99.90
2022-08-21T00:08:47.878Z,99.90
2022-08-21T00:11:20.093Z,99.90
2022-08-21T00:13:51.856Z,99.90
2022-08-21T00:16:24.462Z,99.90
2022-08-21T00:18:56.270Z,99.90
2022-08-21T00:21:29.089Z,99.90
2022-08-21T00:24:01.196Z,99.90
2022-08-21T00:26:34.155Z,99.90
2022-08-21T00:29:06.405Z,99.90
2022-08-21T00:31:38.482Z,99.90
2022-08-21T00:34:12.103Z,99.90
2022-08-21T00:36:44.309Z,99.90
2022-08-21T00:39:16.148Z,99.90
2022-08-21T00:41:48.756Z,99.90
2022-08-21T00:44:20.518Z,99.90
2022-08-21T00:46:53.965Z,99.90
2022-08-21T00:49:26.206Z,99.90
2022-08-21T00:52:01.872Z,99.90
2022-08-21T00:54:35.080Z,99.90
2022-08-21T00:57:13.876Z,99.90
2022-08-21T00:59:52.277Z,99.90
2022-08-21T01:02:24.613Z,99.90
2022-08-21T01:04:57.126Z,99.90
2022-08-21T01:07:28.896Z,99.90
2022-08-21T01:10:01.554Z,99.90
2022-08-21T01:12:36.073Z,99.90
2022-08-21T01:15:10.068Z,99.90
2022-08-21T01:17:42.905Z,99.90
2022-08-21T01:20:15.412Z,99.90
2022-08-21T01:22:48.187Z,99.90
2022-08-21T01:25:23.325Z,99.90
2022-08-21T01:27:55.974Z,99.90
2022-08-21T01:30:29.344Z,99.90
2022-08-21T01:33:02.037Z,99.90
2022-08-21T01:35:33.862Z,99.90
2022-08-21T01:38:06.707Z,99.90
2022-08-21T01:40:38.424Z,99.90
2022-08-21T01:43:11.222Z,99.90
2022-08-21T01:45:43.487Z,99.90
2022-08-21T01:48:17.056Z,99.90
2022-08-21T01:50:49.536Z,99.90
2022-08-21T01:53:33.452Z,99.90
2022-08-21T01:56:12.602Z,99.90
2022-08-21T01:58:48.072Z,99.90
2022-08-21T02:01:19.939Z,99.90
2022-08-21T02:03:52.660Z,99.90
2022-08-21T02:06:24.407Z,99.90
2022-08-21T02:08:56.975Z,99.90
2022-08-21T02:11:28.917Z,99.90
2022-08-21T02:14:01.130Z,99.90
2022-08-21T02:16:33.049Z,99.90
2022-08-21T02:19:07.151Z,99.90
2022-08-21T02:21:39.134Z,99.90
2022-08-21T02:24:13.190Z,99.90
2022-08-21T02:26:45.035Z,99.90
2022-08-21T02:29:17.659Z,99.90
2022-08-21T02:31:49.530Z,99.90
2022-08-21T02:34:22.866Z,99.90
2022-08-21T02:37:01.282Z,99.90
2022-08-21T02:39:34.098Z,99.90
2022-08-21T02:42:05.857Z,99.90
2022-08-21T02:44:38.441Z,99.90
2022-08-21T02:47:10.303Z,99.90
2022-08-21T02:49:43.101Z,99.90
2022-08-21T02:52:15.645Z,99.90
2022-08-21T02:54:48.212Z,99.90
2022-08-21T02:57:20.034Z,99.90
2022-08-21T02:59:52.661Z,99.90
2022-08-21T03:02:26.677Z,99.90
2022-08-21T03:04:59.385Z,99.90
2022-08-21T03:07:31.548Z,99.90
2022-08-21T03:10:05.388Z,99.90
2022-08-21T03:12:37.565Z,99.90
2022-08-21T03:15:13.182Z,99.90
2022-08-21T03:17:46.845Z,99.90
2022-08-21T03:20:21.041Z,99.90
2022-08-21T03:22:54.764Z,99.90
2022-08-21T03:25:40.021Z,99.90
2022-08-21T03:28:16.883Z,99.90
2022-08-21T03:30:52.586Z,99.90
2022-08-21T03:33:25.601Z,99.90
2022-08-21T03:36:04.469Z,99.90
2022-08-21T03:38:38.680Z,99.90
2022-08-21T03:41:10.538Z,99.90
2022-08-21T03:43:43.133Z,99.90
2022-08-21T03:46:15.505Z,99.90
2022-08-21T03:48:48.126Z,99.90
2022-08-21T03:51:21.070Z,99.90
2022-08-21T03:53:53.109Z,99.90
2022-08-21T03:56:25.750Z,99.90
2022-08-21T03:58:57.688Z,99.90
2022-08-21T04:01:30.492Z,99.90
2022-08-21T04:04:02.451Z,99.90
2022-08-21T04:06:37.849Z,99.90
2022-08-21T04:09:09.847Z,99.90
2022-08-21T04:11:42.597Z,99.90
2022-08-21T04:14:15.432Z,99.90
2022-08-21T04:16:48.078Z,99.90
2022-08-21T04:19:19.923Z,99.90
2022-08-21T04:21:52.696Z,99.90
2022-08-21T04:24:24.440Z,99.90
2022-08-21T04:26:56.668Z,99.90
2022-08-21T04:29:28.424Z,99.90
2022-08-21T04:32:01.037Z,99.90
2022-08-21T04:34:32.816Z,99.90
2022-08-21T04:37:05.756Z,99.90
2022-08-21T04:39:37.493Z,99.90
2022-08-21T04:42:10.808Z,99.90
2022-08-21T04:44:43.060Z,99.90
2022-08-21T04:47:14.793Z,99.90
2022-08-21T04:49:47.560Z,99.90
2022-08-21T04:52:24.449Z,99.90
2022-08-21T04:54:56.623Z,99.90
2022-08-21T04:57:47.381Z,99.90
2022-08-21T05:00:23.178Z,99.90
2022-08-21T05:03:00.127Z,99.90
2022-08-21T05:05:33.627Z,99.90
2022-08-21T05:08:08.563Z,99.90
2022-08-21T05:10:41.016Z,99.90
2022-08-21T05:13:14.079Z,99.90
2022-08-21T05:15:46.724Z,99.90
2022-08-21T05:18:18.524Z,99.90
2022-08-21T05:20:52.024Z,99.90
2022-08-21T05:23:24.328Z,99.90
2022-08-21T05:25:57.288Z,99.90
2022-08-21T05:28:29.359Z,99.90
2022-08-21T05:31:01.960Z,99.90
2022-08-21T05:33:33.745Z,99.90
2022-08-21T05:36:08.569Z,99.90
2022-08-21T05:38:41.972Z,99.90
2022-08-21T05:41:14.233Z,99.90
2022-08-21T05:43:45.956Z,99.90
2022-08-21T05:46:18.599Z,99.90
2022-08-21T05:48:50.945Z,99.90
2022-08-21T05:51:22.746Z,99.90
2022-08-21T05:53:55.503Z,99.90
2022-08-21T05:56:27.389Z,99.90
2022-08-21T05:59:00.059Z,99.90
2022-08-21T06:01:31.884Z,99.90
2022-08-21T06:04:04.863Z,99.90
2022-08-21T06:06:36.613Z,99.90
2022-08-21T06:09:09.360Z,99.90
2022-08-21T06:11:41.398Z,99.90
2022-08-21T06:14:18.037Z,99.90
2022-08-21T06:16:50.292Z,99.90
2022-08-21T06:19:22.123Z,99.90
2022-08-21T06:21:54.738Z,99.90
2022-08-21T06:24:27.048Z,99.90
2022-08-21T06:27:04.688Z,99.90
2022-08-21T06:29:44.364Z,99.90
2022-08-21T06:32:16.923Z,99.90
2022-08-21T06:34:50.443Z,99.90
2022-08-21T06:37:23.137Z,99.90
2022-08-21T06:39:56.953Z,99.90
2022-08-21T06:42:30.965Z,99.90
2022-08-21T06:45:02.861Z,99.90
2022-08-21T06:47:35.549Z,99.90
2022-08-21T06:50:08.632Z,99.90
2022-08-21T06:52:41.567Z,99.90
2022-08-21T06:55:13.930Z,99.90
2022-08-21T06:57:54.647Z,99.90
2022-08-21T07:00:27.747Z,99.90
2022-08-21T07:03:00.017Z,99.90
2022-08-21T07:05:32.955Z,99.90
2022-08-21T07:08:04.649Z,99.90
2022-08-21T07:10:36.836Z,99.90
2022-08-21T07:13:08.685Z,99.90
2022-08-21T07:15:41.493Z,99.90
2022-08-21T07:18:14.055Z,99.90
2022-08-21T07:20:47.411Z,99.90
2022-08-21T07:23:33.277Z,99.90
2022-08-21T07:26:06.457Z,99.90
2022-08-21T07:28:39.160Z,99.90
2022-08-21T07:31:14.616Z,99.90
2022-08-21T07:33:47.899Z,99.90
2022-08-21T07:36:20.277Z,99.90
2022-08-21T07:38:53.114Z,99.90
2022-08-21T07:41:30.022Z,99.90
2022-08-21T07:44:01.893Z,99.90
2022-08-21T07:46:34.987Z,99.90
2022-08-21T07:49:06.856Z,99.90
2022-08-21T07:51:40.253Z,99.90
2022-08-21T07:54:12.112Z,99.90
2022-08-21T07:56:49.750Z,99.90
2022-08-21T07:59:21.705Z,99.90
2022-08-21T08:01:54.349Z,99.90
2022-08-21T08:04:26.766Z,99.90
2022-08-21T08:06:59.365Z,99.90
2022-08-21T08:09:31.688Z,99.90
2022-08-21T08:12:05.524Z,99.90
2022-08-21T08:14:37.616Z,99.90
2022-08-21T08:17:10.216Z,99.90
2022-08-21T08:19:41.953Z,99.90
2022-08-21T08:22:20.714Z,99.90
2022-08-21T08:24:56.036Z,99.90
2022-08-21T08:27:28.959Z,99.90
2022-08-21T08:30:00.779Z,99.90
2022-08-21T08:32:33.450Z,99.90
2022-08-21T08:35:06.336Z,99.30
2022-08-21T08:37:41.968Z,99.20
2022-08-21T08:40:34.773Z,97.20
2022-08-21T08:43:07.206Z,97.30
2022-08-21T08:45:42.000Z,95.80
2022-08-21T08:48:22.225Z,97.20
2022-08-21T08:50:58.595Z,96.60
2022-08-21T08:53:36.300Z,96.50
2022-08-21T08:56:08.331Z,96.60
2022-08-21T08:58:46.159Z,95.20
2022-08-21T09:01:20.821Z,93.50
2022-08-21T09:03:53.738Z,94.10
2022-08-21T09:06:51.605Z,92.40
2022-08-21T09:09:29.248Z,93.20
2022-08-21T09:12:13.761Z,91.90
2022-08-21T09:14:52.509Z,92.10
2022-08-21T09:17:45.859Z,91.40
2022-08-21T09:20:20.597Z,92.70
2022-08-21T09:23:22.333Z,93.50
2022-08-21T09:26:05.980Z,94.30
2022-08-21T09:28:38.822Z,93.10
2022-08-21T09:31:31.604Z,92.50
2022-08-21T09:34:14.625Z,92.70
2022-08-21T09:36:50.372Z,92.70
2022-08-21T09:39:40.266Z,91.60
2022-08-21T09:42:29.933Z,91.30
2022-08-21T09:45:11.253Z,90.30
2022-08-21T09:47:45.362Z,90.20
2022-08-21T09:50:27.711Z,91.30
2022-08-21T09:53:04.651Z,91.50
2022-08-21T09:56:07.316Z,91.30
2022-08-21T09:58:43.101Z,91.10
2022-08-21T10:01:18.611Z,90.40
2022-08-21T10:04:09.633Z,88.30
2022-08-21T10:06:41.721Z,89.00
2022-08-21T10:09:21.336Z,88.50
2022-08-21T10:12:24.205Z,88.90
2022-08-21T10:15:36.728Z,90.20
2022-08-21T10:18:28.279Z,90.60
2022-08-21T10:21:04.297Z,90.80
2022-08-21T10:23:52.699Z,91.30
2022-08-21T10:27:07.113Z,90.30
2022-08-21T10:30:07.012Z,89.60
2022-08-21T10:33:05.248Z,88.20
2022-08-21T10:35:49.997Z,86.40
2022-08-21T10:42:28.320Z,89.00
2022-08-21T10:45:14.640Z,87.70
2022-08-21T10:47:58.052Z,87.00
2022-08-21T10:50:40.460Z,88.50
2022-08-21T10:53:31.344Z,87.30
2022-08-21T10:56:23.639Z,89.60
2022-08-21T10:59:06.577Z,90.00
2022-08-21T11:01:50.478Z,88.60
2022-08-21T11:04:50.002Z,88.40
2022-08-21T11:07:34.433Z,85.40
2022-08-21T11:10:19.867Z,86.90
2022-08-21T11:13:04.581Z,87.90
2022-08-21T11:15:45.308Z,88.10
2022-08-21T11:18:33.494Z,86.70
2022-08-21T11:21:21.043Z,83.90
2022-08-21T11:24:04.767Z,83.50
2022-08-21T11:26:45.683Z,83.00
2022-08-21T11:29:30.268Z,83.20
2022-08-21T11:32:23.641Z,80.10
2022-08-21T11:35:03.776Z,80.90
2022-08-21T11:37:57.998Z,82.50
2022-08-21T11:41:01.901Z,83.80
2022-08-21T11:43:50.271Z,82.80
2022-08-21T11:47:11.155Z,81.00
2022-08-21T11:50:03.574Z,81.60
2022-08-21T11:52:41.947Z,81.30
2022-08-21T11:55:23.981Z,81.40
2022-08-21T11:58:00.267Z,82.30
2022-08-21T12:00:34.413Z,83.10
2022-08-21T12:03:12.370Z,82.70
2022-08-21T12:05:54.809Z,82.70
2022-08-21T12:08:37.016Z,83.50
2022-08-21T12:11:17.899Z,84.50
2022-08-21T12:14:01.542Z,85.80
2022-08-21T12:16:37.108Z,86.70
2022-08-21T12:19:15.405Z,88.30
2022-08-21T12:22:06.506Z,87.80
2022-08-21T12:24:42.953Z,86.60
2022-08-21T12:27:18.686Z,85.60
2022-08-21T12:29:54.998Z,84.00
2022-08-21T12:32:31.035Z,83.20
2022-08-21T12:35:15.612Z,83.50
2022-08-21T12:38:00.306Z,84.10
2022-08-21T12:40:42.993Z,82.90
2022-08-21T12:43:43.278Z,82.60
2022-08-21T12:46:22.099Z,82.20
2022-08-21T12:49:01.075Z,82.30
2022-08-21T12:52:07.247Z,82.10
2022-08-21T12:54:45.572Z,82.10
2022-08-21T12:57:25.788Z,81.90
2022-08-21T13:00:00.217Z,82.10
2022-08-21T13:02:38.568Z,82.80
2022-08-21T13:05:27.910Z,81.40
2022-08-21T13:08:05.761Z,81.50
2022-08-21T13:10:39.665Z,82.40
2022-08-21T13:13:25.017Z,83.90
2022-08-21T13:16:07.017Z,83.10
2022-08-21T13:18:58.910Z,83.40
2022-08-21T13:21:41.710Z,83.40
2022-08-21T13:24:43.602Z,83.30
2022-08-21T13:27:27.819Z,83.80
2022-08-21T13:30:26.504Z,82.90
2022-08-21T13:33:12.306Z,82.30
2022-08-21T13:35:56.890Z,82.80
2022-08-21T13:38:36.571Z,81.80
2022-08-21T13:41:11.476Z,82.70
2022-08-21T13:43:51.404Z,82.10
2022-08-21T13:46:25.369Z,81.70
2022-08-21T13:48:59.628Z,81.90
2022-08-21T13:51:33.568Z,81.20
2022-08-21T13:54:37.891Z,80.60
2022-08-21T13:57:25.189Z,81.00
2022-08-21T14:00:26.265Z,81.30
2022-08-21T14:03:06.259Z,82.60
2022-08-21T14:05:45.878Z,82.20
2022-08-21T14:08:30.699Z,81.90
2022-08-21T14:11:06.479Z,82.30
2022-08-21T14:13:41.513Z,82.00
2022-08-21T14:16:16.892Z,81.70
2022-08-21T14:19:08.496Z,83.50
2022-08-21T14:21:44.595Z,83.00
2022-08-21T14:24:23.368Z,82.90
2022-08-21T14:27:07.634Z,82.30
2022-08-21T14:29:43.864Z,82.60
2022-08-21T14:32:21.640Z,81.80
2022-08-21T14:34:59.314Z,81.80
2022-08-21T14:37:31.293Z,80.70
2022-08-21T14:40:05.479Z,81.60
2022-08-21T14:42:39.677Z,81.20
2022-08-21T14:45:17.648Z,81.50
2022-08-21T14:47:54.235Z,81.60
2022-08-21T14:50:28.108Z,80.70
2022-08-21T14:53:00.492Z,79.30
2022-08-21T14:55:57.505Z,80.20
2022-08-21T14:58:30.106Z,80.80
2022-08-21T15:01:05.455Z,80.20
2022-08-21T15:03:39.994Z,80.30
2022-08-21T15:06:12.029Z,80.70
2022-08-21T15:08:44.999Z,80.30
2022-08-21T15:11:42.399Z,80.10
2022-08-21T15:14:20.911Z,81.40
2022-08-21T15:16:54.544Z,81.10
2022-08-21T15:19:27.226Z,81.00
2022-08-21T15:21:59.381Z,81.50
2022-08-21T15:24:32.176Z,81.10
2022-08-21T15:27:07.203Z,81.30
2022-08-21T15:29:39.545Z,81.90
2022-08-21T15:32:23.935Z,82.80
2022-08-21T15:34:58.250Z,81.40
2022-08-21T15:37:30.971Z,82.20
2022-08-21T15:40:05.585Z,82.00
2022-08-21T15:42:40.169Z,82.00
2022-08-21T15:45:14.239Z,82.60
2022-08-21T15:47:47.430Z,82.10
2022-08-21T15:50:21.181Z,80.80
2022-08-21T15:52:54.090Z,80.60
2022-08-21T15:55:27.402Z,81.60
2022-08-21T15:58:02.856Z,82.80
2022-08-21T16:00:38.338Z,82.20
2022-08-21T16:03:17.582Z,83.40
2022-08-21T16:05:51.593Z,83.20
2022-08-21T16:08:24.567Z,83.20
2022-08-21T16:10:57.377Z,82.90
2022-08-21T16:13:40.433Z,82.80
2022-08-21T16:16:17.121Z,82.40
2022-08-21T16:18:50.655Z,82.70
2022-08-21T16:21:25.494Z,82.90
2022-08-21T16:23:57.275Z,82.80
2022-08-21T16:26:31.022Z,82.80
2022-08-21T16:29:05.148Z,82.50
2022-08-21T16:31:38.066Z,82.80
2022-08-21T16:34:12.248Z,83.30
2022-08-21T16:36:48.415Z,83.10
2022-08-21T16:39:20.896Z,83.10
2022-08-21T16:41:54.384Z,83.30
2022-08-21T16:44:26.794Z,82.80
2022-08-21T16:47:02.936Z,82.80
2022-08-21T16:49:35.608Z,82.70
2022-08-21T16:52:08.383Z,83.40
2022-08-21T16:54:43.834Z,83.30
2022-08-21T16:57:15.772Z,83.60
2022-08-21T16:59:48.561Z,83.50
2022-08-21T17:02:38.976Z,82.60
2022-08-21T17:05:14.143Z,82.70
2022-08-21T17:07:47.046Z,82.80
2022-08-21T17:10:19.525Z,82.70
2022-08-21T17:12:56.232Z,82.50
2022-08-21T17:15:33.868Z,82.80
2022-08-21T17:18:08.308Z,83.20
2022-08-21T17:20:41.353Z,82.90
2022-08-21T17:23:15.422Z,83.60
2022-08-21T17:25:50.919Z,83.80
2022-08-21T17:28:26.994Z,84.80
2022-08-21T17:31:02.209Z,84.10
2022-08-21T17:33:51.364Z,84.50
2022-08-21T17:36:28.441Z,84.30
2022-08-21T17:39:01.137Z,84.10
2022-08-21T17:41:34.402Z,83.80
2022-08-21T17:44:10.172Z,84.20
2022-08-21T17:46:43.184Z,84.10
2022-08-21T17:49:15.931Z,84.00
2022-08-21T17:51:49.944Z,84.20
2022-08-21T17:54:21.792Z,83.90
2022-08-21T17:56:56.274Z,81.30
2022-08-21T17:59:28.509Z,81.60
2022-08-21T18:02:06.180Z,81.30
2022-08-21T18:04:43.110Z,79.20
2022-08-21T18:07:32.379Z,79.00
2022-08-21T18:10:10.826Z,80.20
2022-08-21T18:12:45.725Z,78.60
2022-08-21T18:15:19.060Z,78.90
2022-08-21T18:17:52.248Z,81.70
2022-08-21T18:20:24.687Z,83.10
2022-08-21T18:22:57.569Z,84.20
2022-08-21T18:25:30.988Z,84.90
2022-08-21T18:28:07.158Z,85.60
2022-08-21T18:30:42.108Z,85.10
2022-08-21T18:33:14.856Z,83.70
2022-08-21T18:35:47.695Z,83.80
2022-08-21T18:38:21.606Z,82.40
2022-08-21T18:40:56.280Z,82.00
2022-08-21T18:43:28.219Z,80.50
2022-08-21T18:46:02.199Z,79.50
2022-08-21T18:48:35.368Z,80.50
2022-08-21T18:51:08.331Z,80.70
2022-08-21T18:53:40.290Z,85.20
2022-08-21T18:56:15.108Z,85.80
2022-08-21T18:58:48.080Z,84.20
2022-08-21T19:01:19.942Z,86.70
2022-08-21T19:03:52.781Z,89.80
2022-08-21T19:06:25.175Z,91.70
2022-08-21T19:08:58.165Z,92.10
2022-08-21T19:11:32.841Z,93.30
2022-08-21T19:14:07.471Z,94.00
2022-08-21T19:16:50.175Z,94.80
2022-08-21T19:19:22.265Z,95.70
2022-08-21T19:21:54.885Z,96.40
2022-08-21T19:24:29.408Z,97.00
2022-08-21T19:27:01.696Z,97.80
2022-08-21T19:29:34.862Z,98.80
2022-08-21T19:32:08.652Z,99.30
2022-08-21T19:34:42.555Z,99.90
2022-08-21T19:37:16.719Z,99.90
2022-08-21T19:42:43.042Z,99.90
2022-08-21T19:45:14.905Z,99.90
2022-08-21T19:47:51.072Z,99.90
2022-08-21T19:50:22.912Z,99.90
2022-08-21T19:52:55.435Z,99.90
2022-08-21T19:55:27.271Z,99.90
2022-08-21T19:58:00.359Z,99.90
2022-08-21T20:00:33.237Z,99.90
2022-08-21T20:03:05.715Z,99.90
2022-08-21T20:05:41.148Z,99.90
2022-08-21T20:11:11.253Z,99.90
2022-08-21T20:13:44.594Z,99.90
2022-08-21T20:16:17.230Z,99.90
2022-08-21T20:18:49.512Z,99.90
2022-08-21T20:21:22.121Z,99.90
2022-08-21T20:23:55.440Z,99.90
2022-08-21T20:26:28.075Z,99.90
2022-08-21T20:29:00.841Z,99.90
2022-08-21T20:31:33.189Z,99.90
2022-08-21T20:34:06.770Z,99.90
2022-08-21T20:36:39.414Z,99.90
2022-08-21T20:39:15.440Z,99.90
2022-08-21T20:41:49.657Z,99.90
2022-08-21T20:44:22.078Z,99.90
2022-08-21T20:47:01.393Z,99.90
2022-08-21T20:49:59.578Z,99.90
2022-08-21T20:52:37.357Z,99.90
2022-08-21T20:55:17.985Z,99.90
2022-08-21T20:58:07.093Z,99.90
2022-08-21T21:00:43.725Z,99.90
2022-08-21T21:03:30.365Z,99.90
2022-08-21T21:06:10.942Z,99.90
2022-08-21T21:09:00.005Z,99.90
2022-08-21T21:11:44.068Z,99.90
2022-08-21T21:14:23.033Z,99.90
2022-08-21T21:17:04.494Z,99.90
2022-08-21T21:19:46.254Z,99.90
2022-08-21T21:22:25.858Z,99.90
2022-08-21T21:25:27.177Z,99.90
2022-08-21T21:28:23.556Z,99.90
2022-08-21T21:30:57.866Z,99.90
2022-08-21T21:33:30.752Z,99.90
2022-08-21T21:36:16.705Z,99.90
2022-08-21T21:39:14.686Z,99.90
2022-08-21T21:41:50.154Z,99.90
2022-08-21T21:44:51.789Z,99.90
2022-08-21T21:47:31.103Z,99.90
2022-08-21T21:53:42.080Z,99.90
2022-08-21T21:56:33.150Z,99.90
2022-08-21T21:59:43.592Z,99.90
2022-08-21T22:02:33.470Z,99.90
2022-08-21T22:05:15.958Z,99.90
2022-08-21T22:07:58.368Z,99.90
2022-08-21T22:10:48.792Z,99.90
2022-08-21T22:13:38.972Z,99.90
2022-08-21T22:16:11.922Z,99.90
2022-08-21T22:18:54.778Z,99.90
2022-08-21T22:21:34.666Z,99.90
2022-08-21T22:24:14.545Z,99.90
2022-08-21T22:26:51.483Z,99.90
2022-08-21T22:29:24.201Z,99.90
2022-08-21T22:32:07.126Z,99.90
2022-08-21T22:34:40.484Z,99.90
2022-08-21T22:37:14.909Z,99.90
2022-08-21T22:39:54.472Z,99.90
2022-08-21T22:42:27.945Z,99.90
2022-08-21T22:45:02.808Z,99.90
2022-08-21T22:50:40.002Z,99.90
2022-08-21T22:53:24.261Z,99.90
2022-08-21T22:55:59.180Z,99.90
2022-08-21T22:58:35.759Z,99.90
2022-08-21T23:01:20.180Z,99.90
2022-08-21T23:03:58.649Z,99.90
2022-08-21T23:06:46.544Z,99.90
2022-08-21T23:09:35.765Z,99.90
2022-08-21T23:12:33.038Z,99.90
2022-08-21T23:15:11.336Z,99.90
2022-08-21T23:18:13.952Z,99.90
2022-08-21T23:21:06.508Z,99.90
2022-08-21T23:23:51.797Z,99.90
2022-08-21T23:26:39.365Z,99.90
2022-08-21T23:29:40.166Z,99.90
2022-08-21T23:32:40.792Z,99.90
2022-08-21T23:35:51.209Z,99.90
2022-08-21T23:38:58.299Z,99.90
2022-08-21T23:41:45.662Z,99.90
2022-08-21T23:44:38.288Z,99.90
2022-08-21T23:47:32.264Z,99.90
2022-08-21T23:50:17.002Z,99.90
2022-08-21T23:53:26.224Z,99.90
2022-08-21T23:56:20.198Z,99.90
2022-08-21T23:59:13.787Z,99.90
